sensor_id;sensor_type;location;lat;lon;timestamp;P1;durP1;ratioP1;P2;durP2;ratioP2
8171;SDS011;4127;47.908;10.850;2022-11-23T14:37:48;1.47;;;1.37;;
8171;SDS011;4127;47.908;10.850;2022-11-23T14:43:28;1.53;;;1.17;;
8171;SDS011;4127;47.908;10.850;2022-11-23T14:46:02;2.47;;;1.30;;
8171;SDS011;4127;47.908;10.850;2022-11-23T14:48:33;1.23;;;1.03;;
8171;SDS011;4127;47.908;10.850;2022-11-23T14:53:33;1.23;;;1.10;;
8171;SDS011;4127;47.908;10.850;2022-11-23T14:56:19;1.87;;;1.67;;
8171;SDS011;4127;47.908;10.850;2022-11-23T14:59:04;2.83;;;2.00;;
8171;SDS011;4127;47.908;10.850;2022-11-23T15:01:40;3.77;;;2.20;;
8171;SDS011;4127;47.908;10.850;2022-11-23T15:04:23;1.60;;;1.50;;
8171;SDS011;4127;47.908;10.850;2022-11-23T15:07:15;3.77;;;2.30;;
8171;SDS011;4127;47.908;10.850;2022-11-23T15:12:40;3.60;;;3.00;;
8171;SDS011;4127;47.908;10.850;2022-11-23T15:17:55;8.97;;;5.90;;
8171;SDS011;4127;47.908;10.850;2022-11-23T15:20:31;15.83;;;11.17;;
8171;SDS011;4127;47.908;10.850;2022-11-23T15:23:00;17.07;;;12.13;;
8171;SDS011;4127;47.908;10.850;2022-11-23T15:25:27;9.80;;;8.07;;
8171;SDS011;4127;47.908;10.850;2022-11-23T15:27:55;5.40;;;4.63;;
8171;SDS011;4127;47.908;10.850;2022-11-23T15:30:28;4.90;;;3.10;;
8171;SDS011;4127;47.908;10.850;2022-11-23T15:32:57;3.13;;;2.63;;
8171;SDS011;4127;47.908;10.850;2022-11-23T15:35:28;5.13;;;2.03;;
8171;SDS011;4127;47.908;10.850;2022-11-23T15:38:01;1.97;;;1.50;;
8171;SDS011;4127;47.908;10.850;2022-11-23T15:40:31;1.50;;;1.40;;
8171;SDS011;4127;47.908;10.850;2022-11-23T15:43:01;2.40;;;1.40;;
8171;SDS011;4127;47.908;10.850;2022-11-23T15:46:11;1.50;;;1.40;;
8171;SDS011;4127;47.908;10.850;2022-11-23T15:48:28;3.90;;;2.57;;
8171;SDS011;4127;47.908;10.850;2022-11-23T15:50:59;2.77;;;2.30;;
8171;SDS011;4127;47.908;10.850;2022-11-23T15:53:28;2.60;;;2.23;;
8171;SDS011;4127;47.908;10.850;2022-11-23T15:56:32;3.40;;;2.47;;
8171;SDS011;4127;47.908;10.850;2022-11-23T15:59:01;5.40;;;3.50;;
8171;SDS011;4127;47.908;10.850;2022-11-23T16:01:49;4.23;;;3.10;;
8171;SDS011;4127;47.908;10.850;2022-11-23T16:04:34;2.50;;;2.40;;
8171;SDS011;4127;47.908;10.850;2022-11-23T16:07:15;4.43;;;4.03;;
8171;SDS011;4127;47.908;10.850;2022-11-23T16:09:43;5.03;;;4.63;;
8171;SDS011;4127;47.908;10.850;2022-11-23T16:12:27;4.37;;;3.90;;
8171;SDS011;4127;47.908;10.850;2022-11-23T16:14:56;3.57;;;2.67;;
8171;SDS011;4127;47.908;10.850;2022-11-23T16:17:25;5.03;;;2.00;;
8171;SDS011;4127;47.908;10.850;2022-11-23T16:19:56;2.10;;;1.90;;
8171;SDS011;4127;47.908;10.850;2022-11-23T16:27:41;1.60;;;1.50;;
8171;SDS011;4127;47.908;10.850;2022-11-23T16:30:51;3.33;;;2.50;;
8171;SDS011;4127;47.908;10.850;2022-11-23T16:33:02;5.90;;;3.57;;
8171;SDS011;4127;47.908;10.850;2022-11-23T16:35:30;3.23;;;2.40;;
8171;SDS011;4127;47.908;10.850;2022-11-23T16:37:57;3.53;;;2.40;;
8171;SDS011;4127;47.908;10.850;2022-11-23T16:40:23;3.33;;;2.80;;
8171;SDS011;4127;47.908;10.850;2022-11-23T16:42:51;4.00;;;3.47;;
8171;SDS011;4127;47.908;10.850;2022-11-23T16:45:18;3.20;;;2.90;;
8171;SDS011;4127;47.908;10.850;2022-11-23T16:47:58;3.03;;;2.13;;
8171;SDS011;4127;47.908;10.850;2022-11-23T16:50:26;2.47;;;2.27;;
8171;SDS011;4127;47.908;10.850;2022-11-23T16:52:55;3.37;;;3.00;;
8171;SDS011;4127;47.908;10.850;2022-11-23T16:55:24;3.03;;;2.67;;
8171;SDS011;4127;47.908;10.850;2022-11-23T16:57:51;2.07;;;1.87;;
8171;SDS011;4127;47.908;10.850;2022-11-23T17:00:20;1.90;;;1.70;;
8171;SDS011;4127;47.908;10.850;2022-11-23T17:02:47;3.13;;;2.30;;
8171;SDS011;4127;47.908;10.850;2022-11-23T17:05:15;2.60;;;2.30;;
8171;SDS011;4127;47.908;10.850;2022-11-23T17:07:43;2.40;;;2.20;;
8171;SDS011;4127;47.908;10.850;2022-11-23T17:10:11;2.97;;;2.40;;
8171;SDS011;4127;47.908;10.850;2022-11-23T17:12:39;3.67;;;3.23;;
8171;SDS011;4127;47.908;10.850;2022-11-23T17:15:14;3.63;;;2.77;;
8171;SDS011;4127;47.908;10.850;2022-11-23T17:17:43;3.50;;;2.90;;
8171;SDS011;4127;47.908;10.850;2022-11-23T17:20:13;3.57;;;2.97;;
8171;SDS011;4127;47.908;10.850;2022-11-23T17:22:41;2.33;;;2.10;;
8171;SDS011;4127;47.908;10.850;2022-11-23T17:25:08;2.83;;;2.30;;
8171;SDS011;4127;47.908;10.850;2022-11-23T17:27:40;3.37;;;2.40;;
8171;SDS011;4127;47.908;10.850;2022-11-23T17:30:10;3.10;;;2.10;;
8171;SDS011;4127;47.908;10.850;2022-11-23T17:32:39;3.83;;;2.90;;
8171;SDS011;4127;47.908;10.850;2022-11-23T17:35:06;2.23;;;2.03;;
8171;SDS011;4127;47.908;10.850;2022-11-23T17:37:33;3.03;;;2.47;;
8171;SDS011;4127;47.908;10.850;2022-11-23T17:40:01;3.00;;;2.03;;
8171;SDS011;4127;47.908;10.850;2022-11-23T17:42:28;2.50;;;2.27;;
8171;SDS011;4127;47.908;10.850;2022-11-23T17:44:55;3.83;;;3.10;;
8171;SDS011;4127;47.908;10.850;2022-11-23T17:47:28;3.73;;;2.60;;
8171;SDS011;4127;47.908;10.850;2022-11-23T17:49:55;3.53;;;3.17;;
8171;SDS011;4127;47.908;10.850;2022-11-23T17:52:23;3.77;;;3.03;;
8171;SDS011;4127;47.908;10.850;2022-11-23T17:54:50;3.27;;;2.83;;
8171;SDS011;4127;47.908;10.850;2022-11-23T17:57:18;4.10;;;2.83;;
8171;SDS011;4127;47.908;10.850;2022-11-23T17:59:48;3.30;;;2.90;;
8171;SDS011;4127;47.908;10.850;2022-11-23T18:02:15;3.73;;;3.33;;
8171;SDS011;4127;47.908;10.850;2022-11-23T18:04:44;5.43;;;3.90;;
8171;SDS011;4127;47.908;10.850;2022-11-23T18:07:12;4.73;;;3.40;;
8171;SDS011;4127;47.908;10.850;2022-11-23T18:09:40;4.30;;;3.50;;
8171;SDS011;4127;47.908;10.850;2022-11-23T18:12:08;4.73;;;3.63;;
8171;SDS011;4127;47.908;10.850;2022-11-23T18:14:35;4.43;;;3.13;;
8171;SDS011;4127;47.908;10.850;2022-11-23T18:17:02;5.40;;;3.83;;
8171;SDS011;4127;47.908;10.850;2022-11-23T18:19:29;7.60;;;5.10;;
8171;SDS011;4127;47.908;10.850;2022-11-23T18:21:56;5.17;;;4.57;;
8171;SDS011;4127;47.908;10.850;2022-11-23T18:24:23;3.73;;;3.13;;
8171;SDS011;4127;47.908;10.850;2022-11-23T18:26:49;6.03;;;5.30;;
8171;SDS011;4127;47.908;10.850;2022-11-23T18:29:16;4.80;;;4.33;;
8171;SDS011;4127;47.908;10.850;2022-11-23T18:31:43;7.27;;;4.87;;
8171;SDS011;4127;47.908;10.850;2022-11-23T18:34:10;4.17;;;3.27;;
8171;SDS011;4127;47.908;10.850;2022-11-23T18:36:36;3.93;;;3.53;;
8171;SDS011;4127;47.908;10.850;2022-11-23T18:39:03;4.37;;;3.43;;
8171;SDS011;4127;47.908;10.850;2022-11-23T18:41:31;4.03;;;3.63;;
8171;SDS011;4127;47.908;10.850;2022-11-23T18:43:57;4.63;;;3.50;;
8171;SDS011;4127;47.908;10.850;2022-11-23T18:46:24;9.20;;;6.93;;
8171;SDS011;4127;47.908;10.850;2022-11-23T18:48:51;11.27;;;7.33;;
8171;SDS011;4127;47.908;10.850;2022-11-23T18:51:18;2.93;;;2.50;;
8171;SDS011;4127;47.908;10.850;2022-11-23T18:53:45;1.83;;;1.43;;
8171;SDS011;4127;47.908;10.850;2022-11-23T18:56:13;1.93;;;1.70;;
8171;SDS011;4127;47.908;10.850;2022-11-23T18:58:40;1.50;;;1.40;;
8171;SDS011;4127;47.908;10.850;2022-11-23T19:01:08;1.70;;;1.60;;
8171;SDS011;4127;47.908;10.850;2022-11-23T19:03:40;2.23;;;1.60;;
8171;SDS011;4127;47.908;10.850;2022-11-23T19:06:07;2.73;;;2.27;;
8171;SDS011;4127;47.908;10.850;2022-11-23T19:08:42;3.27;;;2.47;;
8171;SDS011;4127;47.908;10.850;2022-11-23T19:11:11;2.53;;;2.20;;
8171;SDS011;4127;47.908;10.850;2022-11-23T19:13:43;3.47;;;2.97;;
8171;SDS011;4127;47.908;10.850;2022-11-23T19:16:12;3.30;;;2.40;;
8171;SDS011;4127;47.908;10.850;2022-11-23T19:18:53;2.17;;;1.87;;
8171;SDS011;4127;47.908;10.850;2022-11-23T19:21:22;3.07;;;2.23;;
8171;SDS011;4127;47.908;10.850;2022-11-23T19:23:51;3.60;;;2.50;;
8171;SDS011;4127;47.908;10.850;2022-11-23T19:26:19;1.60;;;1.50;;
8171;SDS011;4127;47.908;10.850;2022-11-23T19:28:46;2.50;;;1.80;;
8171;SDS011;4127;47.908;10.850;2022-11-23T19:31:14;1.80;;;1.70;;
8171;SDS011;4127;47.908;10.850;2022-11-23T19:33:46;2.10;;;1.80;;
8171;SDS011;4127;47.908;10.850;2022-11-23T19:36:14;6.07;;;2.77;;
8171;SDS011;4127;47.908;10.850;2022-11-23T19:38:43;2.33;;;2.10;;
8171;SDS011;4127;47.908;10.850;2022-11-23T19:41:10;2.80;;;2.33;;
8171;SDS011;4127;47.908;10.850;2022-11-23T19:43:37;3.00;;;2.27;;
8171;SDS011;4127;47.908;10.850;2022-11-23T19:46:04;3.10;;;2.67;;
8171;SDS011;4127;47.908;10.850;2022-11-23T19:48:32;2.67;;;2.33;;
8171;SDS011;4127;47.908;10.850;2022-11-23T19:51:00;2.30;;;2.10;;
8171;SDS011;4127;47.908;10.850;2022-11-23T19:53:32;3.37;;;2.80;;
8171;SDS011;4127;47.908;10.850;2022-11-23T19:56:01;3.90;;;2.43;;
8171;SDS011;4127;47.908;10.850;2022-11-23T19:58:29;3.20;;;2.40;;
8171;SDS011;4127;47.908;10.850;2022-11-23T20:01:00;2.07;;;1.93;;
8171;SDS011;4127;47.908;10.850;2022-11-23T20:03:35;4.53;;;2.73;;
8171;SDS011;4127;47.908;10.850;2022-11-23T20:06:05;2.10;;;1.90;;
8171;SDS011;4127;47.908;10.850;2022-11-23T20:08:35;2.90;;;2.57;;
8171;SDS011;4127;47.908;10.850;2022-11-23T20:11:06;2.97;;;2.37;;
8171;SDS011;4127;47.908;10.850;2022-11-23T20:13:34;3.30;;;2.50;;
8171;SDS011;4127;47.908;10.850;2022-11-23T20:16:05;6.73;;;3.90;;
8171;SDS011;4127;47.908;10.850;2022-11-23T20:18:33;4.67;;;3.93;;
8171;SDS011;4127;47.908;10.850;2022-11-23T20:21:00;3.10;;;2.60;;
8171;SDS011;4127;47.908;10.850;2022-11-23T20:23:27;6.20;;;3.50;;
8171;SDS011;4127;47.908;10.850;2022-11-23T20:25:55;6.50;;;4.03;;
8171;SDS011;4127;47.908;10.850;2022-11-23T20:28:23;8.70;;;4.67;;
8171;SDS011;4127;47.908;10.850;2022-11-23T20:30:50;4.07;;;2.57;;
8171;SDS011;4127;47.908;10.850;2022-11-23T20:33:17;4.57;;;3.33;;
8171;SDS011;4127;47.908;10.850;2022-11-23T20:35:45;8.87;;;5.23;;
8171;SDS011;4127;47.908;10.850;2022-11-23T22:10:05;2.80;;;2.60;;
8171;SDS011;4127;47.908;10.850;2022-11-23T22:13:28;3.57;;;2.77;;
8171;SDS011;4127;47.908;10.850;2022-11-23T22:16:09;3.23;;;2.80;;
